sensor_id;sensor_type;location;lat;lon;timestamp;P1;durP1;ratioP1;P2;durP2;ratioP2
27804;SDS011;15183;51.350;11.102;2024-03-25T00:01:47;4.25;;;2.13;;
27804;SDS011;15183;51.350;11.102;2024-03-25T00:04:14;4.53;;;1.98;;
27804;SDS011;15183;51.350;11.102;2024-03-25T00:06:40;5.53;;;1.92;;
27804;SDS011;15183;51.350;11.102;2024-03-25T00:09:07;4.07;;;1.88;;
27804;SDS011;15183;51.350;11.102;2024-03-25T00:11:42;4.72;;;2.17;;
27804;SDS011;15183;51.350;11.102;2024-03-25T00:14:09;5.45;;;2.33;;
27804;SDS011;15183;51.350;11.102;2024-03-25T00:16:36;7.32;;;2.00;;
27804;SDS011;15183;51.350;11.102;2024-03-25T00:19:02;6.22;;;1.90;;
27804;SDS011;15183;51.350;11.102;2024-03-25T00:21:29;4.18;;;1.70;;
27804;SDS011;15183;51.350;11.102;2024-03-25T00:23:56;4.47;;;2.38;;
27804;SDS011;15183;51.350;11.102;2024-03-25T00:26:25;4.30;;;2.25;;
27804;SDS011;15183;51.350;11.102;2024-03-25T00:28:52;5.72;;;2.10;;
27804;SDS011;15183;51.350;11.102;2024-03-25T00:31:18;5.03;;;1.80;;
27804;SDS011;15183;51.350;11.102;2024-03-25T00:33:45;5.18;;;2.17;;
27804;SDS011;15183;51.350;11.102;2024-03-25T00:36:12;2.92;;;1.55;;
27804;SDS011;15183;51.350;11.102;2024-03-25T00:38:38;4.18;;;2.20;;
27804;SDS011;15183;51.350;11.102;2024-03-25T00:41:06;6.75;;;2.47;;
27804;SDS011;15183;51.350;11.102;2024-03-25T00:43:33;4.97;;;2.53;;
27804;SDS011;15183;51.350;11.102;2024-03-25T00:45:59;7.18;;;2.00;;
27804;SDS011;15183;51.350;11.102;2024-03-25T00:48:26;4.15;;;2.60;;
27804;SDS011;15183;51.350;11.102;2024-03-25T00:50:53;3.45;;;2.08;;
27804;SDS011;15183;51.350;11.102;2024-03-25T00:53:20;7.43;;;2.13;;
27804;SDS011;15183;51.350;11.102;2024-03-25T00:55:46;3.67;;;1.90;;
27804;SDS011;15183;51.350;11.102;2024-03-25T00:58:13;3.83;;;2.08;;
27804;SDS011;15183;51.350;11.102;2024-03-25T01:00:41;3.80;;;2.15;;
27804;SDS011;15183;51.350;11.102;2024-03-25T01:03:07;5.45;;;1.85;;
27804;SDS011;15183;51.350;11.102;2024-03-25T01:05:34;3.97;;;1.85;;
27804;SDS011;15183;51.350;11.102;2024-03-25T01:08:01;4.00;;;2.63;;
27804;SDS011;15183;51.350;11.102;2024-03-25T01:10:27;3.45;;;2.38;;
27804;SDS011;15183;51.350;11.102;2024-03-25T01:12:54;4.35;;;1.90;;
27804;SDS011;15183;51.350;11.102;2024-03-25T01:15:21;5.07;;;1.58;;
27804;SDS011;15183;51.350;11.102;2024-03-25T01:17:48;6.15;;;2.30;;
27804;SDS011;15183;51.350;11.102;2024-03-25T01:20:14;2.20;;;1.83;;
27804;SDS011;15183;51.350;11.102;2024-03-25T01:22:41;3.42;;;2.00;;
27804;SDS011;15183;51.350;11.102;2024-03-25T01:25:07;2.55;;;1.63;;
27804;SDS011;15183;51.350;11.102;2024-03-25T01:27:35;3.40;;;1.33;;
27804;SDS011;15183;51.350;11.102;2024-03-25T01:30:03;2.53;;;1.45;;
27804;SDS011;15183;51.350;11.102;2024-03-25T01:32:30;2.10;;;1.38;;
27804;SDS011;15183;51.350;11.102;2024-03-25T01:34:56;2.35;;;2.00;;
27804;SDS011;15183;51.350;11.102;2024-03-25T01:37:23;2.40;;;1.50;;
27804;SDS011;15183;51.350;11.102;2024-03-25T01:39:49;2.83;;;2.08;;
27804;SDS011;15183;51.350;11.102;2024-03-25T01:42:16;2.92;;;1.92;;
27804;SDS011;15183;51.350;11.102;2024-03-25T01:44:43;4.60;;;1.80;;
27804;SDS011;15183;51.350;11.102;2024-03-25T01:47:09;5.13;;;2.85;;
27804;SDS011;15183;51.350;11.102;2024-03-25T01:49:36;2.15;;;1.55;;
27804;SDS011;15183;51.350;11.102;2024-03-25T01:52:02;3.55;;;1.95;;
27804;SDS011;15183;51.350;11.102;2024-03-25T01:54:29;3.72;;;1.33;;
27804;SDS011;15183;51.350;11.102;2024-03-25T01:56:56;3.03;;;2.10;;
27804;SDS011;15183;51.350;11.102;2024-03-25T01:59:23;4.72;;;2.10;;
27804;SDS011;15183;51.350;11.102;2024-03-25T02:01:50;4.78;;;3.05;;
27804;SDS011;15183;51.350;11.102;2024-03-25T02:04:19;3.78;;;1.83;;
27804;SDS011;15183;51.350;11.102;2024-03-25T02:06:45;5.43;;;2.00;;
27804;SDS011;15183;51.350;11.102;2024-03-25T02:09:12;3.80;;;1.77;;
27804;SDS011;15183;51.350;11.102;2024-03-25T02:11:39;3.58;;;2.38;;
27804;SDS011;15183;51.350;11.102;2024-03-25T02:14:06;6.05;;;2.13;;
27804;SDS011;15183;51.350;11.102;2024-03-25T02:16:33;5.85;;;2.55;;
27804;SDS011;15183;51.350;11.102;2024-03-25T02:19:00;4.88;;;2.58;;
27804;SDS011;15183;51.350;11.102;2024-03-25T02:21:26;5.78;;;2.03;;
27804;SDS011;15183;51.350;11.102;2024-03-25T02:23:53;3.78;;;1.77;;
27804;SDS011;15183;51.350;11.102;2024-03-25T02:26:25;5.50;;;1.88;;
27804;SDS011;15183;51.350;11.102;2024-03-25T02:28:51;5.00;;;2.33;;
27804;SDS011;15183;51.350;11.102;2024-03-25T02:31:18;2.72;;;1.70;;
27804;SDS011;15183;51.350;11.102;2024-03-25T02:33:44;4.13;;;1.30;;
27804;SDS011;15183;51.350;11.102;2024-03-25T02:36:11;3.38;;;1.70;;
27804;SDS011;15183;51.350;11.102;2024-03-25T02:38:38;3.60;;;1.50;;
27804;SDS011;15183;51.350;11.102;2024-03-25T02:41:04;3.40;;;1.10;;
27804;SDS011;15183;51.350;11.102;2024-03-25T02:43:31;2.22;;;1.45;;
27804;SDS011;15183;51.350;11.102;2024-03-25T02:46:00;3.38;;;1.50;;
27804;SDS011;15183;51.350;11.102;2024-03-25T02:48:26;3.00;;;1.30;;
27804;SDS011;15183;51.350;11.102;2024-03-25T02:50:53;2.75;;;1.38;;
27804;SDS011;15183;51.350;11.102;2024-03-25T02:53:19;3.25;;;1.67;;
27804;SDS011;15183;51.350;11.102;2024-03-25T02:55:46;3.88;;;1.20;;
27804;SDS011;15183;51.350;11.102;2024-03-25T02:58:12;3.15;;;1.63;;
27804;SDS011;15183;51.350;11.102;2024-03-25T03:00:39;4.05;;;1.48;;
27804;SDS011;15183;51.350;11.102;2024-03-25T03:03:05;3.55;;;1.40;;
27804;SDS011;15183;51.350;11.102;2024-03-25T03:05:31;3.17;;;1.65;;
27804;SDS011;15183;51.350;11.102;2024-03-25T03:07:58;3.03;;;1.48;;
27804;SDS011;15183;51.350;11.102;2024-03-25T03:10:24;4.93;;;2.15;;
27804;SDS011;15183;51.350;11.102;2024-03-25T03:12:51;3.60;;;2.03;;
27804;SDS011;15183;51.350;11.102;2024-03-25T03:15:18;3.13;;;1.63;;
27804;SDS011;15183;51.350;11.102;2024-03-25T03:17:44;3.55;;;2.03;;
27804;SDS011;15183;51.350;11.102;2024-03-25T03:20:10;3.97;;;2.47;;
27804;SDS011;15183;51.350;11.102;2024-03-25T03:22:37;5.78;;;2.25;;
27804;SDS011;15183;51.350;11.102;2024-03-25T03:25:04;5.88;;;2.15;;
27804;SDS011;15183;51.350;11.102;2024-03-25T03:27:30;5.63;;;2.42;;
27804;SDS011;15183;51.350;11.102;2024-03-25T03:29:59;4.65;;;2.53;;
27804;SDS011;15183;51.350;11.102;2024-03-25T03:32:25;3.38;;;2.35;;
27804;SDS011;15183;51.350;11.102;2024-03-25T03:34:52;3.78;;;2.00;;
27804;SDS011;15183;51.350;11.102;2024-03-25T03:37:18;6.18;;;2.22;;
27804;SDS011;15183;51.350;11.102;2024-03-25T03:39:45;2.38;;;1.95;;
27804;SDS011;15183;51.350;11.102;2024-03-25T03:42:11;7.10;;;2.85;;
27804;SDS011;15183;51.350;11.102;2024-03-25T03:44:38;6.05;;;2.97;;
27804;SDS011;15183;51.350;11.102;2024-03-25T03:47:04;4.20;;;2.50;;
27804;SDS011;15183;51.350;11.102;2024-03-25T03:49:31;7.25;;;3.72;;
27804;SDS011;15183;51.350;11.102;2024-03-25T03:51:58;5.55;;;3.08;;
27804;SDS011;15183;51.350;11.102;2024-03-25T03:54:26;4.63;;;2.78;;
27804;SDS011;15183;51.350;11.102;2024-03-25T03:56:52;3.67;;;2.33;;
27804;SDS011;15183;51.350;11.102;2024-03-25T03:59:18;4.60;;;2.22;;
27804;SDS011;15183;51.350;11.102;2024-03-25T04:01:45;4.32;;;2.00;;
27804;SDS011;15183;51.350;11.102;2024-03-25T04:04:12;5.85;;;2.75;;
27804;SDS011;15183;51.350;11.102;2024-03-25T04:06:39;4.93;;;2.15;;
27804;SDS011;15183;51.350;11.102;2024-03-25T04:09:06;4.53;;;2.30;;
27804;SDS011;15183;51.350;11.102;2024-03-25T04:11:36;6.05;;;3.30;;
27804;SDS011;15183;51.350;11.102;2024-03-25T04:14:02;4.25;;;1.90;;
27804;SDS011;15183;51.350;11.102;2024-03-25T04:16:29;4.38;;;2.20;;
27804;SDS011;15183;51.350;11.102;2024-03-25T04:18:56;2.38;;;1.52;;
27804;SDS011;15183;51.350;11.102;2024-03-25T04:21:23;3.92;;;2.25;;
27804;SDS011;15183;51.350;11.102;2024-03-25T04:23:50;7.22;;;2.15;;
27804;SDS011;15183;51.350;11.102;2024-03-25T04:26:17;4.78;;;2.97;;
27804;SDS011;15183;51.350;11.102;2024-03-25T04:28:43;3.15;;;2.20;;
27804;SDS011;15183;51.350;11.102;2024-03-25T04:31:10;3.10;;;1.70;;
27804;SDS011;15183;51.350;11.102;2024-03-25T04:33:37;6.07;;;2.75;;
27804;SDS011;15183;51.350;11.102;2024-03-25T04:36:03;4.25;;;2.17;;
27804;SDS011;15183;51.350;11.102;2024-03-25T04:38:30;2.75;;;1.98;;
27804;SDS011;15183;51.350;11.102;2024-03-25T04:40:57;3.90;;;2.35;;
27804;SDS011;15183;51.350;11.102;2024-03-25T04:43:24;2.30;;;1.60;;
27804;SDS011;15183;51.350;11.102;2024-03-25T04:45:50;4.57;;;2.30;;
27804;SDS011;15183;51.350;11.102;2024-03-25T04:48:17;3.53;;;2.13;;
27804;SDS011;15183;51.350;11.102;2024-03-25T04:50:43;4.75;;;2.80;;
27804;SDS011;15183;51.350;11.102;2024-03-25T04:53:11;4.05;;;2.25;;
27804;SDS011;15183;51.350;11.102;2024-03-25T04:55:37;3.67;;;2.30;;
27804;SDS011;15183;51.350;11.102;2024-03-25T04:58:04;5.07;;;3.55;;
27804;SDS011;15183;51.350;11.102;2024-03-25T05:00:30;6.32;;;3.30;;
27804;SDS011;15183;51.350;11.102;2024-03-25T05:02:57;4.32;;;2.40;;
27804;SDS011;15183;51.350;11.102;2024-03-25T05:05:25;7.88;;;2.38;;
27804;SDS011;15183;51.350;11.102;2024-03-25T05:07:51;6.03;;;2.53;;
27804;SDS011;15183;51.350;11.102;2024-03-25T05:10:17;4.13;;;2.90;;
27804;SDS011;15183;51.350;11.102;2024-03-25T05:12:44;5.85;;;2.60;;
27804;SDS011;15183;51.350;11.102;2024-03-25T05:15:13;3.75;;;1.77;;
27804;SDS011;15183;51.350;11.102;2024-03-25T05:17:40;4.70;;;1.70;;
27804;SDS011;15183;51.350;11.102;2024-03-25T05:20:06;5.32;;;1.50;;
27804;SDS011;15183;51.350;11.102;2024-03-25T05:22:33;2.65;;;1.60;;
27804;SDS011;15183;51.350;11.102;2024-03-25T05:25:00;6.97;;;3.85;;
27804;SDS011;15183;51.350;11.102;2024-03-25T05:27:27;7.25;;;4.40;;
27804;SDS011;15183;51.350;11.102;2024-03-25T05:29:54;3.63;;;2.72;;
27804;SDS011;15183;51.350;11.102;2024-03-25T05:32:20;6.15;;;2.35;;
27804;SDS011;15183;51.350;11.102;2024-03-25T05:34:47;3.97;;;2.05;;
27804;SDS011;15183;51.350;11.102;2024-03-25T05:37:14;6.07;;;1.88;;
27804;SDS011;15183;51.350;11.102;2024-03-25T05:39:41;6.85;;;4.07;;
27804;SDS011;15183;51.350;11.102;2024-03-25T05:42:07;3.33;;;2.60;;
27804;SDS011;15183;51.350;11.102;2024-03-25T05:44:33;6.63;;;3.88;;
27804;SDS011;15183;51.350;11.102;2024-03-25T05:47:00;6.38;;;2.92;;
27804;SDS011;15183;51.350;11.102;2024-03-25T05:49:26;7.15;;;3.90;;
27804;SDS011;15183;51.350;11.102;2024-03-25T05:51:53;9.43;;;4.85;;
27804;SDS011;15183;51.350;11.102;2024-03-25T05:54:19;9.15;;;4.72;;
27804;SDS011;15183;51.350;11.102;2024-03-25T05:56:46;9.15;;;5.85;;
27804;SDS011;15183;51.350;11.102;2024-03-25T05:59:12;5.53;;;3.33;;
27804;SDS011;15183;51.350;11.102;2024-03-25T06:01:39;4.55;;;2.33;;
27804;SDS011;15183;51.350;11.102;2024-03-25T06:04:06;6.30;;;3.38;;
27804;SDS011;15183;51.350;11.102;2024-03-25T06:06:32;6.07;;;3.00;;
27804;SDS011;15183;51.350;11.102;2024-03-25T06:08:59;8.52;;;2.25;;
27804;SDS011;15183;51.350;11.102;2024-03-25T06:11:26;7.63;;;3.17;;
27804;SDS011;15183;51.350;11.102;2024-03-25T06:13:53;5.90;;;4.10;;
27804;SDS011;15183;51.350;11.102;2024-03-25T06:16:19;8.05;;;4.00;;
27804;SDS011;15183;51.350;11.102;2024-03-25T06:18:46;7.18;;;3.70;;
27804;SDS011;15183;51.350;11.102;2024-03-25T06:21:13;6.47;;;3.60;;
27804;SDS011;15183;51.350;11.102;2024-03-25T06:23:40;7.20;;;2.88;;
27804;SDS011;15183;51.350;11.102;2024-03-25T06:26:08;4.93;;;2.50;;
27804;SDS011;15183;51.350;11.102;2024-03-25T06:28:34;8.80;;;2.40;;
27804;SDS011;15183;51.350;11.102;2024-03-25T06:31:01;5.40;;;2.25;;
27804;SDS011;15183;51.350;11.102;2024-03-25T06:33:46;5.15;;;2.15;;
27804;SDS011;15183;51.350;11.102;2024-03-25T06:36:31;3.33;;;1.83;;
27804;SDS011;15183;51.350;11.102;2024-03-25T06:38:57;4.03;;;1.83;;
27804;SDS011;15183;51.350;11.102;2024-03-25T06:41:25;5.30;;;1.95;;
27804;SDS011;15183;51.350;11.102;2024-03-25T06:43:51;9.23;;;2.97;;
27804;SDS011;15183;51.350;11.102;2024-03-25T06:46:18;9.98;;;4.25;;
27804;SDS011;15183;51.350;11.102;2024-03-25T06:48:44;12.48;;;3.63;;
27804;SDS011;15183;51.350;11.102;2024-03-25T06:51:12;8.93;;;4.90;;
27804;SDS011;15183;51.350;11.102;2024-03-25T06:53:38;7.28;;;3.30;;
27804;SDS011;15183;51.350;11.102;2024-03-25T06:56:05;10.98;;;4.03;;
27804;SDS011;15183;51.350;11.102;2024-03-25T06:58:31;7.32;;;3.10;;
27804;SDS011;15183;51.350;11.102;2024-03-25T07:01:03;9.13;;;3.50;;
27804;SDS011;15183;51.350;11.102;2024-03-25T07:03:32;9.43;;;4.60;;
27804;SDS011;15183;51.350;11.102;2024-03-25T07:06:00;9.60;;;4.57;;
27804;SDS011;15183;51.350;11.102;2024-03-25T07:08:27;8.27;;;3.65;;
27804;SDS011;15183;51.350;11.102;2024-03-25T07:10:54;6.95;;;3.20;;
27804;SDS011;15183;51.350;11.102;2024-03-25T07:13:21;5.10;;;3.35;;
27804;SDS011;15183;51.350;11.102;2024-03-25T07:15:47;7.75;;;3.92;;
27804;SDS011;15183;51.350;11.102;2024-03-25T07:18:14;12.77;;;4.40;;
27804;SDS011;15183;51.350;11.102;2024-03-25T07:20:41;6.25;;;3.08;;
27804;SDS011;15183;51.350;11.102;2024-03-25T07:23:09;11.13;;;4.25;;
27804;SDS011;15183;51.350;11.102;2024-03-25T07:25:36;8.48;;;4.28;;
27804;SDS011;15183;51.350;11.102;2024-03-25T07:28:03;6.65;;;3.33;;
27804;SDS011;15183;51.350;11.102;2024-03-25T07:30:30;14.23;;;9.57;;
27804;SDS011;15183;51.350;11.102;2024-03-25T07:32:58;6.65;;;3.33;;
27804;SDS011;15183;51.350;11.102;2024-03-25T07:35:25;10.30;;;4.70;;
27804;SDS011;15183;51.350;11.102;2024-03-25T07:37:51;10.43;;;5.05;;
27804;SDS011;15183;51.350;11.102;2024-03-25T07:40:18;5.95;;;3.28;;
27804;SDS011;15183;51.350;11.102;2024-03-25T07:42:45;5.80;;;2.83;;
27804;SDS011;15183;51.350;11.102;2024-03-25T07:45:14;5.80;;;2.30;;
27804;SDS011;15183;51.350;11.102;2024-03-25T07:47:42;4.85;;;2.15;;
27804;SDS011;15183;51.350;11.102;2024-03-25T07:50:09;5.60;;;2.20;;
27804;SDS011;15183;51.350;11.102;2024-03-25T07:52:35;3.25;;;1.60;;
27804;SDS011;15183;51.350;11.102;2024-03-25T07:55:06;2.17;;;1.45;;
27804;SDS011;15183;51.350;11.102;2024-03-25T07:57:33;7.55;;;1.98;;
27804;SDS011;15183;51.350;11.102;2024-03-25T08:00:00;5.00;;;1.90;;
27804;SDS011;15183;51.350;11.102;2024-03-25T08:02:27;7.22;;;2.65;;
27804;SDS011;15183;51.350;11.102;2024-03-25T08:04:53;7.03;;;2.53;;
27804;SDS011;15183;51.350;11.102;2024-03-25T08:07:20;3.35;;;1.85;;
27804;SDS011;15183;51.350;11.102;2024-03-25T08:09:46;4.47;;;1.60;;
27804;SDS011;15183;51.350;11.102;2024-03-25T08:12:13;3.30;;;1.40;;
27804;SDS011;15183;51.350;11.102;2024-03-25T08:14:40;6.07;;;2.25;;
27804;SDS011;15183;51.350;11.102;2024-03-25T08:17:09;4.30;;;1.33;;
27804;SDS011;15183;51.350;11.102;2024-03-25T08:19:35;6.18;;;1.70;;
27804;SDS011;15183;51.350;11.102;2024-03-25T08:22:02;8.18;;;1.85;;
27804;SDS011;15183;51.350;11.102;2024-03-25T08:24:29;3.35;;;1.35;;
27804;SDS011;15183;51.350;11.102;2024-03-25T08:26:56;7.38;;;1.73;;
27804;SDS011;15183;51.350;11.102;2024-03-25T08:29:22;8.68;;;2.30;;
27804;SDS011;15183;51.350;11.102;2024-03-25T08:31:49;5.07;;;2.03;;
27804;SDS011;15183;51.350;11.102;2024-03-25T08:34:16;6.93;;;3.47;;
27804;SDS011;15183;51.350;11.102;2024-03-25T08:36:42;4.55;;;2.53;;
27804;SDS011;15183;51.350;11.102;2024-03-25T08:39:09;6.05;;;2.92;;
27804;SDS011;15183;51.350;11.102;2024-03-25T08:41:35;4.28;;;2.33;;
27804;SDS011;15183;51.350;11.102;2024-03-25T08:44:01;3.80;;;1.75;;
27804;SDS011;15183;51.350;11.102;2024-03-25T08:46:28;4.50;;;1.88;;
27804;SDS011;15183;51.350;11.102;2024-03-25T08:48:54;5.75;;;2.38;;
27804;SDS011;15183;51.350;11.102;2024-03-25T08:51:21;3.40;;;1.80;;
27804;SDS011;15183;51.350;11.102;2024-03-25T08:53:48;4.80;;;1.60;;
27804;SDS011;15183;51.350;11.102;2024-03-25T08:56:15;7.68;;;3.20;;
27804;SDS011;15183;51.350;11.102;2024-03-25T08:58:42;7.13;;;3.67;;
27804;SDS011;15183;51.350;11.102;2024-03-25T09:01:09;6.82;;;2.72;;
27804;SDS011;15183;51.350;11.102;2024-03-25T09:03:40;7.70;;;4.18;;
27804;SDS011;15183;51.350;11.102;2024-03-25T09:06:06;6.40;;;2.80;;
27804;SDS011;15183;51.350;11.102;2024-03-25T09:08:33;10.88;;;2.38;;
27804;SDS011;15183;51.350;11.102;2024-03-25T09:11:19;5.05;;;3.15;;
27804;SDS011;15183;51.350;11.102;2024-03-25T09:13:46;6.95;;;2.22;;
27804;SDS011;15183;51.350;11.102;2024-03-25T09:16:13;5.38;;;2.17;;
27804;SDS011;15183;51.350;11.102;2024-03-25T09:18:40;8.35;;;2.95;;
27804;SDS011;15183;51.350;11.102;2024-03-25T09:21:07;12.98;;;6.20;;
27804;SDS011;15183;51.350;11.102;2024-03-25T09:23:34;9.18;;;4.55;;
27804;SDS011;15183;51.350;11.102;2024-03-25T09:26:01;6.97;;;4.20;;
27804;SDS011;15183;51.350;11.102;2024-03-25T09:28:29;6.80;;;3.10;;
27804;SDS011;15183;51.350;11.102;2024-03-25T09:30:59;6.63;;;2.97;;
27804;SDS011;15183;51.350;11.102;2024-03-25T09:33:26;7.03;;;1.98;;
27804;SDS011;15183;51.350;11.102;2024-03-25T09:35:53;7.25;;;2.45;;
27804;SDS011;15183;51.350;11.102;2024-03-25T09:38:19;5.25;;;3.00;;
27804;SDS011;15183;51.350;11.102;2024-03-25T09:40:46;9.13;;;4.15;;
27804;SDS011;15183;51.350;11.102;2024-03-25T09:43:13;8.23;;;3.53;;
27804;SDS011;15183;51.350;11.102;2024-03-25T09:45:57;7.65;;;2.47;;
27804;SDS011;15183;51.350;11.102;2024-03-25T09:48:24;6.50;;;3.05;;
27804;SDS011;15183;51.350;11.102;2024-03-25T09:50:52;7.10;;;2.10;;
27804;SDS011;15183;51.350;11.102;2024-03-25T09:53:19;4.82;;;1.52;;
27804;SDS011;15183;51.350;11.102;2024-03-25T09:55:46;7.80;;;2.33;;
27804;SDS011;15183;51.350;11.102;2024-03-25T09:58:16;5.10;;;3.10;;
27804;SDS011;15183;51.350;11.102;2024-03-25T10:00:45;5.22;;;2.80;;
27804;SDS011;15183;51.350;11.102;2024-03-25T10:03:11;4.63;;;2.92;;
27804;SDS011;15183;51.350;11.102;2024-03-25T10:05:40;6.00;;;3.20;;
27804;SDS011;15183;51.350;11.102;2024-03-25T10:08:08;4.45;;;2.40;;
27804;SDS011;15183;51.350;11.102;2024-03-25T10:10:35;6.45;;;3.75;;
27804;SDS011;15183;51.350;11.102;2024-03-25T10:13:05;8.23;;;3.60;;
27804;SDS011;15183;51.350;11.102;2024-03-25T10:15:32;8.23;;;4.03;;
27804;SDS011;15183;51.350;11.102;2024-03-25T10:17:59;6.50;;;3.63;;
27804;SDS011;15183;51.350;11.102;2024-03-25T10:20:26;6.85;;;3.95;;
27804;SDS011;15183;51.350;11.102;2024-03-25T10:22:52;6.10;;;3.58;;
27804;SDS011;15183;51.350;11.102;2024-03-25T10:25:26;7.55;;;4.95;;
27804;SDS011;15183;51.350;11.102;2024-03-25T10:30:31;6.78;;;4.18;;
27804;SDS011;15183;51.350;11.102;2024-03-25T10:33:04;5.57;;;2.83;;
27804;SDS011;15183;51.350;11.102;2024-03-25T10:35:32;6.05;;;3.20;;
27804;SDS011;15183;51.350;11.102;2024-03-25T10:38:02;7.32;;;3.00;;
27804;SDS011;15183;51.350;11.102;2024-03-25T10:40:34;5.80;;;3.03;;
27804;SDS011;15183;51.350;11.102;2024-03-25T10:45:42;7.95;;;3.58;;
27804;SDS011;15183;51.350;11.102;2024-03-25T10:50:53;8.23;;;2.70;;
27804;SDS011;15183;51.350;11.102;2024-03-25T10:53:22;3.90;;;2.17;;
27804;SDS011;15183;51.350;11.102;2024-03-25T10:55:57;5.13;;;1.83;;
27804;SDS011;15183;51.350;11.102;2024-03-25T10:58:24;3.58;;;1.58;;
27804;SDS011;15183;51.350;11.102;2024-03-25T11:00:52;9.48;;;1.45;;
27804;SDS011;15183;51.350;11.102;2024-03-25T11:03:22;3.08;;;1.10;;
27804;SDS011;15183;51.350;11.102;2024-03-25T11:05:50;4.32;;;1.20;;
27804;SDS011;15183;51.350;11.102;2024-03-25T11:08:19;3.65;;;1.40;;
27804;SDS011;15183;51.350;11.102;2024-03-25T11:10:46;5.32;;;1.70;;
27804;SDS011;15183;51.350;11.102;2024-03-25T11:13:13;2.63;;;1.55;;
27804;SDS011;15183;51.350;11.102;2024-03-25T11:15:43;5.60;;;2.72;;
27804;SDS011;15183;51.350;11.102;2024-03-25T11:18:15;4.32;;;1.85;;
27804;SDS011;15183;51.350;11.102;2024-03-25T11:21:01;6.75;;;2.30;;
27804;SDS011;15183;51.350;11.102;2024-03-25T11:23:38;7.45;;;1.50;;
27804;SDS011;15183;51.350;11.102;2024-03-25T11:26:20;7.78;;;2.72;;
27804;SDS011;15183;51.350;11.102;2024-03-25T11:28:50;6.05;;;2.08;;
27804;SDS011;15183;51.350;11.102;2024-03-25T11:31:22;2.95;;;1.20;;
27804;SDS011;15183;51.350;11.102;2024-03-25T11:33:51;2.58;;;1.33;;
27804;SDS011;15183;51.350;11.102;2024-03-25T11:36:20;4.72;;;1.75;;
27804;SDS011;15183;51.350;11.102;2024-03-25T11:38:57;5.95;;;2.00;;
27804;SDS011;15183;51.350;11.102;2024-03-25T11:41:31;4.78;;;2.95;;
27804;SDS011;15183;51.350;11.102;2024-03-25T11:43:59;7.30;;;2.47;;
27804;SDS011;15183;51.350;11.102;2024-03-25T11:46:26;4.00;;;1.73;;
27804;SDS011;15183;51.350;11.102;2024-03-25T11:48:53;7.88;;;2.60;;
27804;SDS011;15183;51.350;11.102;2024-03-25T11:51:19;4.85;;;1.80;;
27804;SDS011;15183;51.350;11.102;2024-03-25T11:53:46;4.25;;;1.83;;
27804;SDS011;15183;51.350;11.102;2024-03-25T11:56:14;5.22;;;2.45;;
27804;SDS011;15183;51.350;11.102;2024-03-25T11:58:41;5.13;;;1.75;;
27804;SDS011;15183;51.350;11.102;2024-03-25T12:01:07;6.28;;;2.72;;
27804;SDS011;15183;51.350;11.102;2024-03-25T12:03:36;4.38;;;2.10;;
27804;SDS011;15183;51.350;11.102;2024-03-25T12:06:02;7.32;;;2.58;;
27804;SDS011;15183;51.350;11.102;2024-03-25T12:08:29;7.25;;;2.50;;
27804;SDS011;15183;51.350;11.102;2024-03-25T12:10:58;4.22;;;1.67;;
27804;SDS011;15183;51.350;11.102;2024-03-25T12:13:45;9.40;;;4.38;;
27804;SDS011;15183;51.350;11.102;2024-03-25T12:16:13;20.42;;;11.65;;
27804;SDS011;15183;51.350;11.102;2024-03-25T12:18:39;24.77;;;15.70;;
27804;SDS011;15183;51.350;11.102;2024-03-25T12:21:07;16.60;;;9.77;;
27804;SDS011;15183;51.350;11.102;2024-03-25T12:23:34;14.80;;;8.13;;
27804;SDS011;15183;51.350;11.102;2024-03-25T12:26:00;13.77;;;8.13;;
27804;SDS011;15183;51.350;11.102;2024-03-25T12:28:28;10.70;;;6.38;;
27804;SDS011;15183;51.350;11.102;2024-03-25T12:30:57;7.85;;;3.85;;
27804;SDS011;15183;51.350;11.102;2024-03-25T12:33:23;8.43;;;3.17;;
27804;SDS011;15183;51.350;11.102;2024-03-25T12:35:52;10.45;;;5.63;;
27804;SDS011;15183;51.350;11.102;2024-03-25T12:38:26;9.25;;;6.00;;
27804;SDS011;15183;51.350;11.102;2024-03-25T12:43:34;11.65;;;6.65;;
27804;SDS011;15183;51.350;11.102;2024-03-25T12:46:03;5.55;;;3.72;;
27804;SDS011;15183;51.350;11.102;2024-03-25T12:48:29;6.88;;;2.25;;
27804;SDS011;15183;51.350;11.102;2024-03-25T12:50:56;6.00;;;2.67;;
27804;SDS011;15183;51.350;11.102;2024-03-25T12:53:22;7.35;;;3.65;;
27804;SDS011;15183;51.350;11.102;2024-03-25T12:55:49;5.70;;;2.70;;
27804;SDS011;15183;51.350;11.102;2024-03-25T12:58:15;7.40;;;4.43;;
27804;SDS011;15183;51.350;11.102;2024-03-25T13:00:42;6.95;;;2.50;;
27804;SDS011;15183;51.350;11.102;2024-03-25T13:03:09;8.55;;;3.35;;
27804;SDS011;15183;51.350;11.102;2024-03-25T13:05:36;8.77;;;4.30;;
27804;SDS011;15183;51.350;11.102;2024-03-25T13:08:03;7.10;;;3.75;;
27804;SDS011;15183;51.350;11.102;2024-03-25T13:10:32;6.38;;;3.63;;
27804;SDS011;15183;51.350;11.102;2024-03-25T13:13:00;6.13;;;3.42;;
27804;SDS011;15183;51.350;11.102;2024-03-25T13:15:28;8.45;;;4.07;;
27804;SDS011;15183;51.350;11.102;2024-03-25T13:17:55;8.60;;;4.00;;
27804;SDS011;15183;51.350;11.102;2024-03-25T13:20:22;8.98;;;5.00;;
27804;SDS011;15183;51.350;11.102;2024-03-25T13:22:49;10.93;;;4.65;;
27804;SDS011;15183;51.350;11.102;2024-03-25T13:25:18;7.85;;;3.35;;
27804;SDS011;15183;51.350;11.102;2024-03-25T13:27:45;8.90;;;3.72;;
27804;SDS011;15183;51.350;11.102;2024-03-25T13:30:11;6.50;;;3.85;;
27804;SDS011;15183;51.350;11.102;2024-03-25T13:32:38;8.95;;;4.80;;
27804;SDS011;15183;51.350;11.102;2024-03-25T13:35:04;7.72;;;3.72;;
27804;SDS011;15183;51.350;11.102;2024-03-25T13:37:32;5.93;;;2.58;;
27804;SDS011;15183;51.350;11.102;2024-03-25T13:39:58;5.75;;;3.05;;
27804;SDS011;15183;51.350;11.102;2024-03-25T13:42:25;6.97;;;2.90;;
27804;SDS011;15183;51.350;11.102;2024-03-25T13:44:51;4.82;;;2.45;;
27804;SDS011;15183;51.350;11.102;2024-03-25T13:47:18;5.07;;;2.17;;
27804;SDS011;15183;51.350;11.102;2024-03-25T13:49:44;6.18;;;2.15;;
27804;SDS011;15183;51.350;11.102;2024-03-25T13:52:10;4.95;;;2.22;;
27804;SDS011;15183;51.350;11.102;2024-03-25T13:54:37;4.82;;;1.63;;
27804;SDS011;15183;51.350;11.102;2024-03-25T13:57:03;5.38;;;1.45;;
27804;SDS011;15183;51.350;11.102;2024-03-25T13:59:30;5.22;;;1.17;;
27804;SDS011;15183;51.350;11.102;2024-03-25T14:01:56;6.05;;;1.80;;
27804;SDS011;15183;51.350;11.102;2024-03-25T14:04:23;5.45;;;1.80;;
27804;SDS011;15183;51.350;11.102;2024-03-25T14:06:49;5.90;;;1.50;;
27804;SDS011;15183;51.350;11.102;2024-03-25T14:09:25;5.80;;;2.70;;
27804;SDS011;15183;51.350;11.102;2024-03-25T14:11:53;5.90;;;1.63;;
27804;SDS011;15183;51.350;11.102;2024-03-25T14:14:19;6.22;;;1.60;;
27804;SDS011;15183;51.350;11.102;2024-03-25T14:16:46;5.72;;;2.38;;
27804;SDS011;15183;51.350;11.102;2024-03-25T14:19:13;7.10;;;2.20;;
27804;SDS011;15183;51.350;11.102;2024-03-25T14:21:40;8.48;;;2.83;;
27804;SDS011;15183;51.350;11.102;2024-03-25T14:24:07;2.88;;;1.55;;
27804;SDS011;15183;51.350;11.102;2024-03-25T14:26:33;6.78;;;3.65;;
27804;SDS011;15183;51.350;11.102;2024-03-25T14:29:00;8.82;;;4.32;;
27804;SDS011;15183;51.350;11.102;2024-03-25T14:31:28;11.38;;;6.30;;
27804;SDS011;15183;51.350;11.102;2024-03-25T14:33:56;8.00;;;3.03;;
27804;SDS011;15183;51.350;11.102;2024-03-25T14:36:22;7.40;;;3.53;;
27804;SDS011;15183;51.350;11.102;2024-03-25T14:38:49;4.13;;;2.65;;
27804;SDS011;15183;51.350;11.102;2024-03-25T14:41:19;8.68;;;2.10;;
27804;SDS011;15183;51.350;11.102;2024-03-25T14:43:47;5.63;;;3.08;;
27804;SDS011;15183;51.350;11.102;2024-03-25T14:46:17;6.88;;;4.30;;